Аэропорт
Иссык-Куль (UCFL)

 UCFL
ЗЦ Центральная Азия
Бишкек (UCFM)
Бишкек (UCFM)
 42.58830, 76.71330  / 5425 ft

 UCFL 101700Z 32003MPS 9999 FEW030CB 17/13 Q1015 R07/CLRD//
 TAF UCFL 101036Z 1012/1021 15003G08MPS 9999 SCT030CB PROB40 TEMPO 1012/1015 TS BECMG 1015/1017 02003G08MPS
показать схемы



2020 © VATRUS division (Privacy Policy)